Flight Track Log - Related Links

Times and Time Zones

All times are in EDT time to prevent confusion due to time zone crossing. See the AWI3688 flight status page for this flight to view local times or setup timezone preferences in your user account.

Time Position Orientation Groundspeed Altitude Reporting Facility
EDT Latitude Longitude Course Direction KTS MPH feet Rate Location/Type
Sat 01:44:13 PM 42.7672 -73.8061 219° Southwest 151 174 1,000  Level Boston Center
Sat 01:44:55 PM 42.7942 -73.8378 319° Northwest 190 219 2,300 1,872 Climbing Boston Center
Sat 01:46:02 PM 42.7886 -73.9311 265° West 267 307 4,400 2,289 Climbing Boston Center
Sat 01:46:32 PM 42.7839 -73.9847 263° West 275 316 6,000 2,294 Climbing Boston Center
Sat 01:47:00 PM 42.6766 -74.3785 220° Southwest  Level FlightAware Approximate
Sat 01:47:44 PM 42.7742 -74.0722 261° West 288 331 8,300  Level Boston Center
Sat 01:48:00 PM 42.5901 -74.4758 220° Southwest  Level FlightAware Approximate
Sat 01:48:44 PM 42.7553 -74.2244 260° West 295 339 11,800  Level Boston Center
Sat 01:49:00 PM 42.5067 -74.5777 219° Southwest  Level FlightAware Approximate
Sat 01:49:44 PM 42.7225 -74.3281 247° West 307 353 14,300  Level Boston Center
Sat 01:50:00 PM 42.4200 -74.6742 219° Southwest  Level FlightAware Approximate
Sat 01:50:44 PM 42.6564 -74.4106 223° Southwest 312 359 15,900  Level Boston Center
Sat 01:51:44 PM 42.5839 -74.4931 220° Southwest 333 383 17,800 1,050 Climbing Boston Center
Sat 01:52:44 PM 42.5072 -74.5806 220° Southwest 354 407 18,000 100 Climbing Boston Center
Sat 01:53:44 PM 42.4242 -74.6761 220° Southwest 379 436 18,000  Level Boston Center
Sat 01:55:55 PM 42.2631 -74.8619 221° Southwest 384 442 18,000  Level New York Center
Sat 01:56:55 PM 42.1850 -74.9494 220° Southwest 379 436 18,000  Level New York Center
Sat 01:57:56 PM 42.0992 -75.0250 213° Southwest 373 429 18,000  Level New York Center
Sat 01:58:54 PM 42.0133 -75.0947 211° Southwest 365 420 18,000  Level New York Center
Sat 01:59:55 PM 41.9167 -75.1747 212° Southwest 371 427 18,000  Level New York Center
Sat 02:00:56 PM 41.8306 -75.2497 213° Southwest 382 440 18,000  Level New York Center
Sat 02:01:53 PM 41.7622 -75.3481 227° Southwest 377 434 18,000  Level New York Center
Sat 02:02:55 PM 41.6769 -75.4033 206° Southwest 372 428 18,000 -200 Level New York Center
Sat 02:03:53 PM 41.5847 -75.4689 208° Southwest 377 434 17,600 -1,220 Descending New York Center
Sat 02:04:53 PM 41.4839 -75.5422 209° Southwest 380 437 15,600 -1,884 Descending New York Center
Sat 02:05:54 PM 41.3961 -75.6025 207° Southwest 375 432 13,800 -1,750 Descending New York Center
Sat 02:06:53 PM 41.3103 -75.6625 208° Southwest 368 423 12,100 -908 Descending New York Center
Sat 02:07:53 PM 41.2300 -75.6897 194° South 318 366 12,000 -50 Descending New York Center
Sat 02:08:53 PM 41.1550 -75.6872 179° South 300 345 12,000 -298 Level New York Center
Sat 02:09:54 PM 41.0792 -75.6622 166° South 294 338 11,400 -893 Descending New York Center
Sat 02:10:54 PM 40.9947 -75.6342 166° South 294 338 10,200 -694 Descending New York Center
Sat 02:11:55 PM 40.9231 -75.6072 164° South 287 330 10,000 -99 Descending New York Center
Sat 02:12:55 PM 40.8511 -75.5800 164° South 287 330 10,000  Level New York Center
Sat 02:13:56 PM 40.7753 -75.5528 165° South 287 330 10,000  Level New York Center
Sat 02:14:53 PM 40.6911 -75.5197 163° South 287 330 10,000  Level New York Center
Sat 02:15:54 PM 40.6108 -75.4922 165° South 292 336 10,000  Level New York Center
Sat 02:16:55 PM 40.5350 -75.4650 165° South 292 336 10,000  Level New York Center
Sat 02:17:53 PM 40.4650 -75.4386 164° South 297 342 10,000 -508 Level New York Center
Sat 02:18:53 PM 40.3861 -75.4358 178° South 268 308 9,000 -1,091 Descending New York Center
Sat 02:19:54 PM 40.3208 -75.4533 192° South 253 291 7,800 -984 Descending New York Center
Sat 02:20:55 PM 40.2575 -75.4708 192° South 247 284 7,000 -397 Descending New York Center
Sat 02:21:55 PM 40.1944 -75.4828 188° South 248 285 7,000  Level New York Center
Sat 02:22:53 PM 40.1294 -75.4403 153° Southeast 232 267 7,000  Level New York Center
Sat 02:23:54 PM 40.0828 -75.4075 152° Southeast 232 267 7,000 -446 Level New York Center
Sat 02:24:54 PM 40.0258 -75.3711 154° Southeast 213 245 6,100 -632 Descending New York Center
Sat 02:25:29 PM 40.0000 -75.3500 148° Southeast 199 229 6,000 -126 Descending Philadelphia TRACON
Sat 02:26:29 PM 39.9667 -75.3833 217° Southwest 233 268 5,900 -279 Descending Philadelphia TRACON
Sat 02:26:55 PM 39.9553 -75.4206 248° West 167 192 5,600 -628 Descending New York Center
Sat 02:27:55 PM 39.9442 -75.4875 258° West 180 207 5,000 -305 Descending New York Center
Sat 02:28:53 PM 39.9322 -75.5733 260° West 212 244 5,000  Level New York Center
Sat 02:29:53 PM 39.9214 -75.6350 257° West 217 250 5,000 -385 Level New York Center
Sat 02:31:29 PM 39.8667 -75.7167 229° Southwest 196 226 4,000 -385 Descending Philadelphia TRACON
Sat 02:32:29 PM 39.8167 -75.7167 180° South 197 227 4,000  Level Philadelphia TRACON
Sat 02:33:29 PM 39.7833 -75.6833 142° Southeast 171 197 4,000 -50 Level Philadelphia TRACON
Sat 02:34:29 PM 39.7833 -75.6167 90° East 169 194 3,900  Descending Philadelphia TRACON
Sat 02:35:29 PM 39.8000 -75.5667 67° East 176 203 4,000 -53 Climbing Philadelphia TRACON
Sat 02:36:23 PM 39.8167 -75.5167 67° East 171 197 3,800 -500 Descending Philadelphia TRACON
Sat 02:37:29 PM 39.8333 -75.4500 72° East 168 193 3,000 -810 Descending Philadelphia TRACON
Sat 02:38:29 PM 39.8333 -75.3833 90° East 167 192 2,100 -900 Descending Philadelphia TRACON
Sat 02:39:29 PM 39.8500 -75.3333 67° East 120 138 1,200 -850 Descending Philadelphia TRACON
Sat 02:40:29 PM 39.8500 -75.3000 90° East 132 152 400 -800 Descending Philadelphia TRACON

Login

Don't have an account? Register now (free) for customized features, flight alerts, and more!